createdAt,value
2022-12-14T00:00:46.076Z,15.40
2022-12-14T00:03:19.601Z,14.20
2022-12-14T00:05:52.598Z,12.75
2022-12-14T00:08:26.143Z,13.62
2022-12-14T00:11:00.915Z,15.95
2022-12-14T00:13:34.175Z,16.90
2022-12-14T00:16:14.308Z,17.90
2022-12-14T00:18:53.700Z,13.80
2022-12-14T00:21:27.286Z,17.10
2022-12-14T00:24:01.449Z,15.13
2022-12-14T00:26:35.327Z,18.32
2022-12-14T00:29:08.640Z,14.53
2022-12-14T00:31:41.394Z,16.02
2022-12-14T00:34:14.225Z,17.07
2022-12-14T00:36:47.144Z,17.67
2022-12-14T00:39:20.408Z,19.40
2022-12-14T00:41:53.297Z,16.82
2022-12-14T00:44:26.906Z,17.90
2022-12-14T00:47:01.120Z,15.63
2022-12-14T00:49:34.268Z,17.98
2022-12-14T00:52:07.817Z,17.95
2022-12-14T00:54:40.961Z,16.60
2022-12-14T00:57:14.274Z,14.65
2022-12-14T00:59:47.155Z,17.05
2022-12-14T01:02:20.267Z,16.17
2022-12-14T01:04:53.302Z,15.85
2022-12-14T01:07:26.188Z,17.40
2022-12-14T01:09:59.245Z,16.97
2022-12-14T01:12:32.659Z,15.95
2022-12-14T01:15:06.839Z,14.57
2022-12-14T01:17:40.837Z,14.75
2022-12-14T01:20:14.624Z,15.23
2022-12-14T01:22:47.456Z,12.23
2022-12-14T01:25:20.494Z,12.30
2022-12-14T01:27:53.505Z,14.98
2022-12-14T01:30:27.725Z,13.03
2022-12-14T01:33:01.033Z,10.55
2022-12-14T01:35:35.569Z,12.40
2022-12-14T01:38:10.762Z,13.65
2022-12-14T01:40:43.616Z,14.95
2022-12-14T01:43:16.611Z,12.18
2022-12-14T01:45:49.298Z,12.47
2022-12-14T01:48:22.191Z,13.62
2022-12-14T01:50:55.740Z,14.83
2022-12-14T01:53:29.653Z,13.28
2022-12-14T01:56:02.757Z,13.25
2022-12-14T01:58:35.846Z,13.50
2022-12-14T02:01:08.715Z,12.10
2022-12-14T02:03:48.434Z,12.37
2022-12-14T02:06:33.244Z,10.30
2022-12-14T02:09:15.621Z,9.15
2022-12-14T02:11:56.184Z,13.10
2022-12-14T02:14:28.926Z,9.38
2022-12-14T02:17:01.966Z,9.80
2022-12-14T02:19:34.842Z,9.65
2022-12-14T02:22:31.669Z,8.03
2022-12-14T02:25:20.344Z,11.60
2022-12-14T02:28:46.735Z,9.98
2022-12-14T02:32:03.323Z,10.65
2022-12-14T02:34:41.406Z,11.25
2022-12-14T02:37:49.408Z,9.40
2022-12-14T02:40:29.382Z,11.00
2022-12-14T02:43:36.288Z,11.75
2022-12-14T02:46:31.071Z,10.70
2022-12-14T02:49:16.951Z,8.83
2022-12-14T02:51:59.424Z,9.60
2022-12-14T02:54:42.284Z,12.43
2022-12-14T02:57:28.891Z,11.85
2022-12-14T03:00:04.620Z,10.43
2022-12-14T03:02:42.027Z,11.75
2022-12-14T03:05:15.158Z,12.13
2022-12-14T03:07:57.449Z,11.93
2022-12-14T03:10:51.462Z,13.48
2022-12-14T03:13:29.673Z,13.30
2022-12-14T03:16:18.841Z,12.47
2022-12-14T03:19:01.796Z,12.63
2022-12-14T03:21:38.630Z,13.93
2022-12-14T03:24:15.225Z,16.00
2022-12-14T03:27:04.628Z,12.75
2022-12-14T03:29:41.917Z,12.23
2022-12-14T03:32:23.706Z,10.10
2022-12-14T03:35:10.108Z,10.90
2022-12-14T03:38:02.737Z,11.28
2022-12-14T03:40:42.867Z,10.70
2022-12-14T03:43:33.856Z,10.68
2022-12-14T03:46:54.226Z,13.90
2022-12-14T03:49:34.532Z,15.00
2022-12-14T03:52:31.775Z,16.75
2022-12-14T03:55:14.967Z,22.62
2022-12-14T03:58:44.175Z,12.58
2022-12-14T04:01:24.740Z,16.93
2022-12-14T04:04:10.001Z,14.65
2022-12-14T04:06:59.188Z,19.65
2022-12-14T04:09:42.903Z,12.75
2022-12-14T04:12:55.516Z,13.30
2022-12-14T04:15:50.704Z,13.53
2022-12-14T04:18:45.958Z,12.23
2022-12-14T04:21:42.986Z,11.70
2022-12-14T04:24:41.272Z,13.45
2022-12-14T04:27:21.444Z,13.48
2022-12-14T04:29:58.225Z,12.55
2022-12-14T04:32:43.671Z,18.00
2022-12-14T04:35:35.495Z,15.05
2022-12-14T04:38:17.910Z,12.60
2022-12-14T04:40:59.501Z,14.35
2022-12-14T04:43:40.142Z,20.32
2022-12-14T04:46:17.257Z,26.62
2022-12-14T04:49:21.477Z,16.82
2022-12-14T04:52:10.099Z,16.62
2022-12-14T04:54:53.697Z,20.10
2022-12-14T04:57:49.546Z,22.30
2022-12-14T05:00:23.004Z,19.87
2022-12-14T05:03:21.579Z,23.33
2022-12-14T05:06:30.415Z,14.18
2022-12-14T05:09:28.843Z,16.93
2022-12-14T05:12:24.537Z,19.82
2022-12-14T05:15:17.019Z,26.07
2022-12-14T05:17:51.050Z,21.07
2022-12-14T05:20:25.756Z,19.20
2022-12-14T05:25:30.808Z,19.42
2022-12-14T05:28:03.679Z,22.93
2022-12-14T05:30:37.126Z,22.10
2022-12-14T05:33:14.869Z,26.90
2022-12-14T05:35:48.036Z,19.35
2022-12-14T05:38:20.858Z,24.12
2022-12-14T05:40:53.645Z,20.50
2022-12-14T05:43:26.771Z,20.70
2022-12-14T05:46:02.566Z,17.95
2022-12-14T05:48:36.193Z,18.67
2022-12-14T05:51:11.446Z,19.30
2022-12-14T05:53:44.529Z,19.30
2022-12-14T05:56:17.374Z,20.97
2022-12-14T05:58:53.668Z,21.02
2022-12-14T06:01:26.653Z,22.07
2022-12-14T06:03:59.874Z,21.27
2022-12-14T06:06:35.029Z,22.27
2022-12-14T06:09:15.898Z,22.55
2022-12-14T06:11:50.402Z,20.77
2022-12-14T06:14:24.776Z,24.92
2022-12-14T06:16:57.904Z,22.93
2022-12-14T06:19:32.057Z,22.32
2022-12-14T06:22:05.066Z,18.73
2022-12-14T06:24:40.013Z,17.80
2022-12-14T06:27:13.286Z,18.02
2022-12-14T06:29:47.742Z,16.42
2022-12-14T06:32:20.714Z,19.12
2022-12-14T06:34:53.768Z,18.40
2022-12-14T06:37:26.756Z,20.10
2022-12-14T06:39:59.692Z,19.40
2022-12-14T06:42:36.307Z,21.80
2022-12-14T06:45:09.979Z,20.17
2022-12-14T06:47:43.244Z,23.30
2022-12-14T06:50:16.314Z,21.77
2022-12-14T06:52:52.852Z,17.55
2022-12-14T06:55:29.481Z,20.95
2022-12-14T06:58:02.241Z,22.73
2022-12-14T07:00:35.459Z,23.32
2022-12-14T07:03:09.439Z,20.82
2022-12-14T07:08:16.546Z,20.00
2022-12-14T07:10:49.492Z,20.65
2022-12-14T07:13:23.159Z,21.40
2022-12-14T07:15:58.054Z,22.32
2022-12-14T07:18:31.117Z,30.35
2022-12-14T07:21:09.696Z,21.87
2022-12-14T07:23:44.402Z,17.10
2022-12-14T07:26:23.498Z,16.90
2022-12-14T07:28:56.936Z,14.15
2022-12-14T07:31:30.924Z,14.80
2022-12-14T07:34:05.940Z,15.85
2022-12-14T07:36:41.058Z,14.23
2022-12-14T07:39:15.259Z,14.18
2022-12-14T07:41:49.173Z,14.90
2022-12-14T07:44:23.874Z,19.10
2022-12-14T07:46:57.248Z,16.30
2022-12-14T07:49:30.216Z,17.00
2022-12-14T07:52:02.915Z,15.30
2022-12-14T07:54:36.462Z,16.87
2022-12-14T07:57:09.467Z,17.00
2022-12-14T07:59:42.627Z,14.87
2022-12-14T08:02:15.774Z,16.95
2022-12-14T08:04:49.126Z,18.27
2022-12-14T08:07:22.040Z,15.25
2022-12-14T08:09:55.204Z,16.07
2022-12-14T08:12:29.094Z,15.53
2022-12-14T08:15:02.467Z,15.85
2022-12-14T08:17:35.918Z,15.37
2022-12-14T08:20:09.524Z,19.10
2022-12-14T08:22:42.413Z,15.93
2022-12-14T08:25:15.403Z,16.65
2022-12-14T08:27:48.283Z,16.42
2022-12-14T08:30:21.650Z,30.10
2022-12-14T08:32:54.308Z,19.37
2022-12-14T08:35:27.602Z,20.05
2022-12-14T08:38:01.431Z,17.55
2022-12-14T08:40:39.230Z,20.88
2022-12-14T08:43:12.188Z,18.48
2022-12-14T08:45:44.983Z,19.77
2022-12-14T08:48:18.099Z,17.95
2022-12-14T08:50:51.653Z,18.45
2022-12-14T08:53:24.280Z,17.87
2022-12-14T08:55:57.019Z,17.67
2022-12-14T08:58:30.198Z,19.45
2022-12-14T09:01:08.531Z,15.03
2022-12-14T09:03:47.477Z,17.80
2022-12-14T09:06:28.175Z,16.25
2022-12-14T09:09:01.701Z,16.30
2022-12-14T09:11:35.419Z,19.52
2022-12-14T09:16:41.996Z,15.50
2022-12-14T09:19:15.137Z,13.37
2022-12-14T09:21:48.350Z,12.85
2022-12-14T09:24:22.586Z,14.17
2022-12-14T09:26:55.367Z,12.93
2022-12-14T09:29:29.578Z,14.17
2022-12-14T09:32:02.702Z,14.47
2022-12-14T09:34:35.773Z,11.93
2022-12-14T09:37:08.600Z,14.50
2022-12-14T09:39:41.940Z,15.95
2022-12-14T09:42:43.821Z,12.03
2022-12-14T09:45:29.253Z,12.95
2022-12-14T09:48:21.202Z,9.63
2022-12-14T09:50:54.980Z,10.98
2022-12-14T09:53:29.631Z,13.30
2022-12-14T09:56:02.987Z,12.10
2022-12-14T09:58:35.898Z,13.03
2022-12-14T10:01:25.587Z,14.87
2022-12-14T10:04:29.135Z,11.57
2022-12-14T10:07:21.141Z,12.47
2022-12-14T10:10:01.992Z,13.03
2022-12-14T10:13:09.026Z,12.40
2022-12-14T10:16:18.840Z,15.35
2022-12-14T10:19:16.075Z,15.95
2022-12-14T10:22:01.915Z,14.63
2022-12-14T10:24:40.505Z,13.78
2022-12-14T10:27:21.052Z,12.78
2022-12-14T10:30:04.272Z,12.65
2022-12-14T10:32:52.220Z,13.70
2022-12-14T10:35:53.867Z,14.10
2022-12-14T10:38:37.561Z,14.40
2022-12-14T10:41:30.576Z,15.85
2022-12-14T10:44:30.604Z,11.70
2022-12-14T10:47:13.923Z,15.70
2022-12-14T10:50:11.069Z,11.55
2022-12-14T10:52:45.792Z,12.03
2022-12-14T10:55:25.869Z,8.98
2022-12-14T10:57:58.983Z,10.05
2022-12-14T11:00:31.880Z,11.00
2022-12-14T11:03:05.375Z,10.80
2022-12-14T11:06:16.298Z,11.03
2022-12-14T11:08:50.870Z,14.60
2022-12-14T11:11:26.467Z,9.70
2022-12-14T11:14:11.214Z,9.20
2022-12-14T11:16:45.047Z,9.73
2022-12-14T11:19:24.282Z,13.30
2022-12-14T11:22:22.299Z,14.18
2022-12-14T11:24:51.974Z,11.90
2022-12-14T11:27:24.744Z,16.52
2022-12-14T11:29:58.386Z,10.23
2022-12-14T11:32:31.413Z,9.80
2022-12-14T11:35:04.528Z,13.50
2022-12-14T11:37:37.836Z,13.53
2022-12-14T11:40:25.541Z,12.43
2022-12-14T11:43:02.822Z,11.28
2022-12-14T11:45:36.501Z,15.00
2022-12-14T11:48:20.300Z,8.93
2022-12-14T11:50:57.146Z,9.78
2022-12-14T11:53:29.861Z,12.07
2022-12-14T11:56:08.026Z,10.80
2022-12-14T11:58:51.215Z,8.13
2022-12-14T12:01:26.968Z,9.63
2022-12-14T12:04:00.870Z,10.80
2022-12-14T12:06:34.251Z,10.03
2022-12-14T12:09:21.168Z,14.33
2022-12-14T12:11:54.270Z,15.00
2022-12-14T12:14:37.317Z,14.45
2022-12-14T12:17:28.905Z,13.62
2022-12-14T12:20:02.811Z,18.92
2022-12-14T12:22:37.363Z,12.17
2022-12-14T12:27:49.945Z,10.03
2022-12-14T12:30:28.479Z,9.43
2022-12-14T12:33:08.345Z,9.80
2022-12-14T12:35:57.156Z,10.58
2022-12-14T12:38:58.602Z,8.10
2022-12-14T12:41:39.460Z,8.35
2022-12-14T12:44:52.299Z,9.83
2022-12-14T12:47:46.790Z,8.53
2022-12-14T12:50:22.919Z,8.83
2022-12-14T12:53:03.757Z,8.65
2022-12-14T12:55:44.040Z,9.83
2022-12-14T12:58:27.190Z,6.92
2022-12-14T13:01:05.419Z,8.43
2022-12-14T13:03:47.489Z,14.78
2022-12-14T13:06:32.296Z,9.70
2022-12-14T13:09:12.559Z,13.08
2022-12-14T13:11:46.921Z,12.55
2022-12-14T13:14:33.426Z,13.13
2022-12-14T13:17:09.318Z,11.97
2022-12-14T13:19:51.912Z,12.10
2022-12-14T13:22:26.193Z,9.38
2022-12-14T13:25:08.556Z,9.53
2022-12-14T13:28:00.854Z,10.23
2022-12-14T13:30:53.351Z,13.40
2022-12-14T13:33:51.816Z,13.65
2022-12-14T13:36:51.265Z,9.13
2022-12-14T13:39:56.776Z,12.03
2022-12-14T13:45:32.837Z,15.93
2022-12-14T13:48:24.010Z,13.90
2022-12-14T13:51:09.027Z,13.50
2022-12-14T13:53:50.417Z,27.37
2022-12-14T13:56:33.453Z,14.45
2022-12-14T13:59:09.926Z,14.60
2022-12-14T14:01:53.790Z,18.67
2022-12-14T14:04:37.381Z,12.95
2022-12-14T14:07:30.160Z,17.67
2022-12-14T14:10:07.115Z,19.05
2022-12-14T14:12:45.545Z,20.17
2022-12-14T14:15:29.549Z,20.23
2022-12-14T14:18:16.243Z,29.00
2022-12-14T14:20:58.928Z,28.83
2022-12-14T14:23:35.825Z,19.77
2022-12-14T14:26:19.438Z,16.55
2022-12-14T14:29:24.731Z,24.18
2022-12-14T14:32:07.018Z,31.57
2022-12-14T14:34:49.761Z,21.87
2022-12-14T14:37:30.794Z,25.27
2022-12-14T14:40:23.932Z,23.73
2022-12-14T14:42:59.646Z,22.98
2022-12-14T14:45:46.049Z,24.75
2022-12-14T14:48:43.865Z,18.40
2022-12-14T14:51:21.647Z,21.40
2022-12-14T14:56:57.150Z,21.10
2022-12-14T14:59:40.685Z,24.02
2022-12-14T15:02:32.924Z,31.12
2022-12-14T15:07:43.718Z,17.80
2022-12-14T15:10:27.648Z,22.07
2022-12-14T15:13:05.056Z,14.18
2022-12-14T15:15:50.029Z,12.00
2022-12-14T15:18:26.552Z,12.23
2022-12-14T15:21:12.036Z,11.55
2022-12-14T15:23:51.254Z,16.23
2022-12-14T15:26:28.818Z,13.53
2022-12-14T15:29:07.794Z,12.05
2022-12-14T15:31:42.549Z,33.95
2022-12-14T15:34:20.662Z,57.88
2022-12-14T15:36:53.975Z,39.85
2022-12-14T15:39:42.096Z,25.50
2022-12-14T15:42:19.383Z,22.27
2022-12-14T15:44:55.480Z,21.15
2022-12-14T15:47:32.042Z,19.57
2022-12-14T15:50:33.264Z,14.53
2022-12-14T15:53:13.941Z,12.88
2022-12-14T15:55:58.263Z,12.98
2022-12-14T15:58:33.163Z,15.58
2022-12-14T16:01:26.140Z,13.58
2022-12-14T16:04:02.457Z,18.77
2022-12-14T16:06:42.189Z,12.68
2022-12-14T16:09:23.049Z,12.13
2022-12-14T16:12:00.719Z,16.37
2022-12-14T16:14:43.736Z,13.38
2022-12-14T16:17:24.230Z,13.53
2022-12-14T16:20:01.351Z,15.35
2022-12-14T16:22:35.144Z,17.23
2022-12-14T16:25:20.342Z,18.15
2022-12-14T16:27:54.059Z,18.77
2022-12-14T16:30:34.738Z,18.48
2022-12-14T16:33:20.727Z,13.60
2022-12-14T16:36:10.162Z,11.35
2022-12-14T16:39:04.168Z,12.45
2022-12-14T16:42:00.811Z,14.50
2022-12-14T16:44:39.580Z,31.87
2022-12-14T16:47:20.107Z,23.85
2022-12-14T16:49:56.444Z,24.85
2022-12-14T16:52:38.258Z,20.90
2022-12-14T16:55:20.239Z,25.12
2022-12-14T16:57:58.907Z,18.98
2022-12-14T17:00:38.004Z,24.90
2022-12-14T17:03:24.637Z,26.30
2022-12-14T17:06:01.647Z,26.23
2022-12-14T17:08:36.240Z,22.37
2022-12-14T17:11:11.580Z,26.33
2022-12-14T17:13:45.368Z,23.38
2022-12-14T17:16:22.058Z,35.08
2022-12-14T17:18:54.980Z,32.78
2022-12-14T17:21:30.103Z,26.65
2022-12-14T17:24:03.347Z,29.27
2022-12-14T17:26:36.544Z,33.40
2022-12-14T17:29:25.698Z,29.90
2022-12-14T17:32:01.877Z,25.40
2022-12-14T17:34:34.930Z,24.18
2022-12-14T17:37:17.811Z,26.27
2022-12-14T17:39:51.165Z,24.87
2022-12-14T17:42:25.308Z,30.52
2022-12-14T17:44:59.907Z,30.00
2022-12-14T17:47:33.281Z,34.73
2022-12-14T17:50:06.792Z,31.62
2022-12-14T17:52:40.063Z,29.87
2022-12-14T17:55:22.528Z,33.00
2022-12-14T17:57:56.266Z,31.95
2022-12-14T18:00:49.504Z,32.70
2022-12-14T18:03:23.411Z,37.13
2022-12-14T18:05:56.513Z,42.27
2022-12-14T18:08:30.195Z,31.37
2022-12-14T18:11:13.406Z,38.95
2022-12-14T18:13:42.544Z,48.73
2022-12-14T18:16:22.340Z,34.38
2022-12-14T18:18:56.325Z,48.70
2022-12-14T18:24:06.764Z,37.23
2022-12-14T18:26:38.234Z,32.10
2022-12-14T18:29:11.170Z,38.40
2022-12-14T18:31:45.991Z,38.98
2022-12-14T18:34:20.907Z,38.13
2022-12-14T18:36:54.149Z,31.80
2022-12-14T18:39:27.033Z,33.57
2022-12-14T18:42:00.391Z,33.10
2022-12-14T18:44:33.996Z,28.98
2022-12-14T18:47:39.593Z,26.10
2022-12-14T18:49:42.111Z,37.93
2022-12-14T18:52:15.932Z,33.13
2022-12-14T18:54:48.944Z,24.82
2022-12-14T18:57:21.932Z,24.80
2022-12-14T18:59:55.642Z,25.27
2022-12-14T19:02:29.374Z,33.33
2022-12-14T19:05:02.494Z,27.87
2022-12-14T19:07:35.983Z,31.68
2022-12-14T19:10:09.397Z,25.53
2022-12-14T19:12:42.562Z,26.85
2022-12-14T19:15:19.400Z,42.20
2022-12-14T19:17:53.045Z,66.42
2022-12-14T19:20:28.438Z,47.08
2022-12-14T19:23:02.764Z,166.88
2022-12-14T19:25:35.975Z,137.75
2022-12-14T19:28:30.989Z,128.70
2022-12-14T19:30:45.994Z,236.03
2022-12-14T19:33:21.055Z,272.50
2022-12-14T19:35:54.410Z,286.70
2022-12-14T19:38:28.712Z,192.90
2022-12-14T19:41:12.101Z,259.70
2022-12-14T19:43:45.529Z,288.05
2022-12-14T19:46:19.216Z,355.10
2022-12-14T19:48:52.913Z,394.13
2022-12-14T19:51:25.985Z,351.18
2022-12-14T19:54:00.785Z,351.48
2022-12-14T19:56:35.140Z,381.57
2022-12-14T19:59:08.191Z,336.70
2022-12-14T20:01:47.742Z,383.98
2022-12-14T20:04:17.472Z,474.70
2022-12-14T20:09:22.660Z,367.90
2022-12-14T20:11:55.558Z,361.57
2022-12-14T20:14:28.794Z,373.43
2022-12-14T20:17:02.466Z,373.25
2022-12-14T20:19:36.835Z,375.18
2022-12-14T20:22:10.873Z,352.85
2022-12-14T20:24:46.053Z,439.97
2022-12-14T20:27:20.174Z,340.62
2022-12-14T20:29:53.499Z,293.52
2022-12-14T20:32:26.437Z,451.82
2022-12-14T20:35:00.537Z,461.33
2022-12-14T20:37:34.125Z,460.32
2022-12-14T20:40:08.434Z,424.60
2022-12-14T20:42:41.725Z,393.77
2022-12-14T20:47:47.775Z,485.78
2022-12-14T20:50:20.942Z,560.73
2022-12-14T20:52:53.880Z,340.92
2022-12-14T20:55:27.045Z,495.73
2022-12-14T20:58:00.444Z,453.23
2022-12-14T21:00:33.731Z,307.13
2022-12-14T21:03:07.077Z,256.25
2022-12-14T21:05:43.862Z,180.72
2022-12-14T21:08:16.842Z,312.82
2022-12-14T21:10:49.880Z,229.17
2022-12-14T21:13:22.817Z,217.37
2022-12-14T21:15:55.892Z,367.52
2022-12-14T21:18:29.082Z,484.93
2022-12-14T21:21:05.264Z,428.55
2022-12-14T21:23:38.395Z,448.58
2022-12-14T21:26:11.534Z,541.80
2022-12-14T21:28:44.524Z,402.53
2022-12-14T21:31:17.812Z,174.20
2022-12-14T21:33:51.119Z,145.03
2022-12-14T21:36:24.118Z,131.73
2022-12-14T21:38:57.670Z,122.27
2022-12-14T21:41:48.653Z,72.90
2022-12-14T21:44:21.633Z,69.35
2022-12-14T21:46:54.746Z,84.97
2022-12-14T21:49:28.523Z,82.92
2022-12-14T21:52:04.549Z,81.50
2022-12-14T21:54:37.376Z,76.30
2022-12-14T21:57:31.613Z,77.35
2022-12-14T22:00:06.445Z,85.67
2022-12-14T22:02:45.517Z,87.37
2022-12-14T22:05:20.179Z,100.02
2022-12-14T22:07:53.254Z,102.40
2022-12-14T22:10:26.295Z,90.77
2022-12-14T22:12:59.207Z,99.60
2022-12-14T22:15:32.336Z,95.90
2022-12-14T22:18:05.762Z,109.50
2022-12-14T22:20:39.311Z,97.15
2022-12-14T22:23:12.337Z,97.42
2022-12-14T22:25:54.535Z,92.00
2022-12-14T22:28:27.644Z,119.67
2022-12-14T22:31:05.029Z,106.85
2022-12-14T22:33:38.263Z,103.58
2022-12-14T22:36:12.025Z,91.37
2022-12-14T22:38:45.839Z,83.50
2022-12-14T22:41:20.781Z,73.87
2022-12-14T22:44:00.883Z,71.90
2022-12-14T22:46:34.595Z,74.53
2022-12-14T22:49:07.683Z,83.50
2022-12-14T22:51:41.392Z,66.60
2022-12-14T22:54:26.392Z,73.37
2022-12-14T22:57:03.949Z,62.23
2022-12-14T22:59:40.752Z,69.75
2022-12-14T23:02:13.995Z,63.95
2022-12-14T23:07:21.637Z,86.82
2022-12-14T23:10:12.414Z,105.35
2022-12-14T23:13:04.152Z,117.15
2022-12-14T23:15:55.870Z,114.47
2022-12-14T23:18:47.145Z,113.88
2022-12-14T23:21:39.297Z,123.62
2022-12-14T23:24:30.468Z,134.85
2022-12-14T23:27:21.408Z,150.38
2022-12-14T23:30:12.330Z,157.52
2022-12-14T23:33:02.919Z,152.82
2022-12-14T23:35:56.275Z,153.53
2022-12-14T23:38:46.931Z,149.62
2022-12-14T23:41:37.436Z,148.62
2022-12-14T23:44:28.539Z,228.65
2022-12-14T23:47:19.606Z,167.28
2022-12-14T23:50:10.588Z,139.95
2022-12-14T23:53:01.943Z,119.67
2022-12-14T23:55:54.964Z,114.32
2022-12-14T23:58:46.357Z,114.20
